createdAt,value
2022-12-31T00:01:49.624Z,96966.38
2022-12-31T00:04:16.669Z,96942.22
2022-12-31T00:06:43.358Z,96980.88
2022-12-31T00:09:10.429Z,96966.50
2022-12-31T00:11:37.707Z,96985.84
2022-12-31T00:14:05.076Z,96997.56
2022-12-31T00:16:36.518Z,96989.31
2022-12-31T00:19:04.669Z,96980.34
2022-12-31T00:21:32.644Z,96996.84
2022-12-31T00:23:59.716Z,96992.91
2022-12-31T00:26:28.453Z,96977.72
2022-12-31T00:28:56.182Z,97000.44
2022-12-31T00:31:25.018Z,97001.16
2022-12-31T00:33:51.891Z,97004.63
2022-12-31T00:36:24.146Z,97018.25
2022-12-31T00:38:52.478Z,97012.88
2022-12-31T00:41:20.474Z,96993.63
2022-12-31T00:43:47.943Z,97024.69
2022-12-31T00:46:15.387Z,96987.50
2022-12-31T00:48:42.817Z,96999.22
2022-12-31T00:51:11.895Z,97003.38
2022-12-31T00:53:39.085Z,96995.88
2022-12-31T00:56:08.712Z,96991.66
2022-12-31T00:58:35.541Z,97010.22
2022-12-31T01:01:13.425Z,97004.13
2022-12-31T01:03:40.241Z,97024.69
2022-12-31T01:06:07.318Z,97018.47
2022-12-31T01:08:34.274Z,96996.59
2022-12-31T01:11:19.876Z,97009.00
2022-12-31T01:13:50.358Z,97033.16
2022-12-31T01:16:17.913Z,97003.72
2022-12-31T01:18:44.629Z,96998.22
2022-12-31T01:21:12.533Z,97010.66
2022-12-31T01:23:39.532Z,96997.59
2022-12-31T01:26:08.476Z,97004.44
2022-12-31T01:28:35.285Z,97014.13
2022-12-31T01:31:06.874Z,97019.63
2022-12-31T01:33:34.223Z,97010.66
2022-12-31T01:36:08.857Z,97036.13
2022-12-31T01:38:36.148Z,97020.44
2022-12-31T01:41:03.720Z,97034.09
2022-12-31T01:43:50.050Z,97018.28
2022-12-31T01:46:24.157Z,97010.03
2022-12-31T01:48:53.417Z,97003.22
2022-12-31T01:51:20.687Z,97032.78
2022-12-31T01:53:47.958Z,97038.41
2022-12-31T01:56:14.732Z,97037.06
2022-12-31T01:58:44.551Z,97063.97
2022-12-31T02:01:14.862Z,97044.81
2022-12-31T02:03:41.744Z,97038.00
2022-12-31T02:06:18.629Z,97091.00
2022-12-31T02:08:45.380Z,97055.22
2022-12-31T02:11:36.510Z,97075.06
2022-12-31T02:14:14.129Z,97086.00
2022-12-31T02:16:45.528Z,97106.69
2022-12-31T02:19:43.225Z,97065.41
2022-12-31T02:22:25.010Z,97091.59
2022-12-31T02:24:57.595Z,97090.28
2022-12-31T02:27:53.602Z,97095.06
2022-12-31T02:30:22.168Z,97074.50
2022-12-31T02:32:54.923Z,97073.16
2022-12-31T02:35:32.648Z,97077.97
2022-12-31T02:38:20.291Z,97095.78
2022-12-31T02:40:47.904Z,97077.34
2022-12-31T02:43:14.780Z,97077.34
2022-12-31T02:45:44.900Z,97098.66
2022-12-31T02:48:26.845Z,97098.03
2022-12-31T02:51:25.187Z,97101.00
2022-12-31T02:54:07.219Z,97129.84
2022-12-31T02:56:52.147Z,97118.13
2022-12-31T02:59:47.220Z,97124.22
2022-12-31T03:02:16.858Z,97115.25
2022-12-31T03:04:51.030Z,97103.66
2022-12-31T03:07:32.668Z,97112.72
2022-12-31T03:10:01.050Z,97103.25
2022-12-31T03:12:48.998Z,97097.63
2022-12-31T03:15:21.800Z,97105.31
2022-12-31T03:17:52.990Z,97105.19
2022-12-31T03:20:39.156Z,97119.66
2022-12-31T03:23:08.056Z,97128.03
2022-12-31T03:25:35.520Z,97132.84
2022-12-31T03:28:04.906Z,97113.44
2022-12-31T03:30:32.418Z,97127.44
2022-12-31T03:33:00.247Z,97133.75
2022-12-31T03:35:28.518Z,97141.41
2022-12-31T03:37:56.527Z,97124.28
2022-12-31T03:40:25.224Z,97131.13
2022-12-31T03:42:58.119Z,97113.25
2022-12-31T03:45:26.906Z,97096.13
2022-12-31T03:47:53.680Z,97094.81
2022-12-31T03:50:22.315Z,97103.91
2022-12-31T03:52:49.040Z,97087.38
2022-12-31T03:55:16.035Z,97102.56
2022-12-31T03:57:43.188Z,97107.47
2022-12-31T04:00:13.326Z,97079.91
2022-12-31T04:02:40.777Z,97093.81
2022-12-31T04:05:08.285Z,97087.69
2022-12-31T04:07:35.213Z,97081.47
2022-12-31T04:10:03.271Z,97095.94
2022-12-31T04:12:30.036Z,97098.00
2022-12-31T04:14:56.825Z,97093.19
2022-12-31T04:17:23.586Z,97097.38
2022-12-31T04:19:55.965Z,97109.22
2022-12-31T04:22:24.132Z,97095.44
2022-12-31T04:24:50.852Z,97072.72
2022-12-31T04:27:17.583Z,97087.19
2022-12-31T04:29:44.266Z,97077.59
2022-12-31T04:32:11.138Z,97070.75
2022-12-31T04:34:37.865Z,97074.94
2022-12-31T04:37:04.651Z,97063.22
2022-12-31T04:39:31.357Z,97084.53
2022-12-31T04:41:58.120Z,97092.91
2022-12-31T04:44:24.857Z,97082.50
2022-12-31T04:46:51.570Z,97068.13
2022-12-31T04:49:18.269Z,97075.66
2022-12-31T04:51:45.083Z,97097.81
2022-12-31T04:54:11.758Z,97105.34
2022-12-31T04:56:38.591Z,97113.63
2022-12-31T04:59:05.697Z,97107.41
2022-12-31T05:01:33.505Z,97117.78
2022-12-31T05:04:00.455Z,97111.56
2022-12-31T05:06:27.332Z,97101.19
2022-12-31T05:08:54.313Z,97116.38
2022-12-31T05:11:21.131Z,97122.59
2022-12-31T05:13:48.104Z,97117.78
2022-12-31T05:16:14.913Z,97129.53
2022-12-31T05:18:41.743Z,97106.78
2022-12-31T05:21:08.532Z,97104.63
2022-12-31T05:23:35.325Z,97103.19
2022-12-31T05:26:02.187Z,97108.81
2022-12-31T05:28:29.073Z,97108.81
2022-12-31T05:30:55.965Z,97085.47
2022-12-31T05:33:23.172Z,97097.91
2022-12-31T05:35:50.091Z,97069.75
2022-12-31T05:38:16.903Z,97095.25
2022-12-31T05:40:43.642Z,97091.19
2022-12-31T05:43:10.439Z,97103.63
2022-12-31T05:45:37.208Z,97109.22
2022-12-31T05:48:04.132Z,97113.31
2022-12-31T05:50:30.904Z,97114.03
2022-12-31T05:53:04.127Z,97105.75
2022-12-31T05:55:30.996Z,97118.09
2022-12-31T05:57:57.900Z,97120.25
2022-12-31T06:00:24.788Z,97129.13
2022-12-31T06:02:51.575Z,97116.06
2022-12-31T06:05:24.152Z,97129.97
2022-12-31T06:07:52.778Z,97116.19
2022-12-31T06:10:19.495Z,97118.19
2022-12-31T06:12:46.297Z,97114.72
2022-12-31T06:15:13.046Z,97127.09
2022-12-31T06:17:39.818Z,97117.41
2022-12-31T06:20:12.508Z,97126.47
2022-12-31T06:22:40.080Z,97125.75
2022-12-31T06:25:07.187Z,97141.69
2022-12-31T06:27:33.899Z,97134.13
2022-12-31T06:30:00.602Z,97125.25
2022-12-31T06:32:27.401Z,97150.03
2022-12-31T06:34:54.072Z,97136.38
2022-12-31T06:37:20.830Z,97141.28
2022-12-31T06:39:47.707Z,97141.88
2022-12-31T06:42:14.480Z,97142.63
2022-12-31T06:44:41.192Z,97158.41
2022-12-31T06:47:07.972Z,97138.53
2022-12-31T06:49:34.698Z,97143.41
2022-12-31T06:52:01.525Z,97162.72
2022-12-31T06:54:28.208Z,97163.41
2022-12-31T06:56:55.362Z,97159.03
2022-12-31T06:59:27.980Z,97152.28
2022-12-31T07:02:07.768Z,97145.28
2022-12-31T07:04:37.614Z,97163.53
2022-12-31T07:07:35.408Z,97137.72
2022-12-31T07:10:29.712Z,97164.72
2022-12-31T07:13:08.975Z,97142.69
2022-12-31T07:15:51.688Z,97155.84
2022-12-31T07:18:18.453Z,97153.22
2022-12-31T07:20:49.112Z,97149.13
2022-12-31T07:23:16.639Z,97150.56
2022-12-31T07:25:50.988Z,97158.81
2022-12-31T07:28:21.120Z,97164.94
2022-12-31T07:31:09.041Z,97154.72
2022-12-31T07:34:06.765Z,97166.34
2022-12-31T07:36:45.970Z,97167.69
2022-12-31T07:39:26.850Z,97181.94
2022-12-31T07:42:43.269Z,97185.72
2022-12-31T07:45:21.080Z,97183.59
2022-12-31T07:47:48.201Z,97180.22
2022-12-31T07:50:17.448Z,97192.66
2022-12-31T07:52:52.237Z,97197.06
2022-12-31T07:55:23.126Z,97179.34
2022-12-31T07:58:01.456Z,97196.81
2022-12-31T08:00:29.640Z,97210.78
2022-12-31T08:03:04.794Z,97221.28
2022-12-31T08:06:00.447Z,97208.34
2022-12-31T08:09:08.235Z,97206.81
2022-12-31T08:11:41.030Z,97198.16
2022-12-31T08:14:12.476Z,97194.19
2022-12-31T08:16:39.561Z,97193.59
2022-12-31T08:19:06.590Z,97200.50
2022-12-31T08:21:54.233Z,97193.09
2022-12-31T08:24:30.155Z,97187.69
2022-12-31T08:27:05.745Z,97206.34
2022-12-31T08:30:02.504Z,97197.59
2022-12-31T08:32:40.031Z,97191.84
2022-12-31T08:35:43.864Z,97210.44
2022-12-31T08:38:48.152Z,97210.94
2022-12-31T08:41:55.049Z,97219.09
2022-12-31T08:44:48.586Z,97213.19
2022-12-31T08:47:26.591Z,97200.25
2022-12-31T08:50:00.292Z,97205.22
2022-12-31T08:52:33.113Z,97196.47
2022-12-31T08:55:01.374Z,97192.50
2022-12-31T08:57:38.144Z,97206.28
2022-12-31T09:00:21.418Z,97219.66
2022-12-31T09:03:12.776Z,97217.22
2022-12-31T09:06:15.823Z,97220.91
2022-12-31T09:09:04.898Z,97235.25
2022-12-31T09:12:01.692Z,97248.63
2022-12-31T09:14:47.409Z,97246.81
2022-12-31T09:17:29.648Z,97224.00
2022-12-31T09:19:56.840Z,97226.19
2022-12-31T09:22:23.945Z,97233.13
2022-12-31T09:24:51.037Z,97248.44
2022-12-31T09:27:30.461Z,97245.88
2022-12-31T09:30:12.797Z,97236.59
2022-12-31T09:33:01.081Z,97237.13
2022-12-31T09:35:42.174Z,97238.72
2022-12-31T09:38:19.911Z,97233.72
2022-12-31T09:40:46.615Z,97239.84
2022-12-31T09:43:38.222Z,97245.50
2022-12-31T09:46:53.972Z,97250.59
2022-12-31T09:49:58.163Z,97249.97
2022-12-31T09:52:58.725Z,97259.97
2022-12-31T09:56:04.218Z,97245.75
2022-12-31T09:58:55.007Z,97245.16
2022-12-31T10:01:24.877Z,97234.31
2022-12-31T10:04:06.792Z,97231.56
2022-12-31T10:07:12.089Z,97237.19
2022-12-31T10:10:03.653Z,97227.06
2022-12-31T10:12:59.196Z,97227.06
2022-12-31T10:16:10.781Z,97215.59
2022-12-31T10:19:00.772Z,97213.56
2022-12-31T10:21:52.255Z,97183.91
2022-12-31T10:24:27.563Z,97200.06
2022-12-31T10:27:07.495Z,97196.78
2022-12-31T10:29:57.078Z,97205.34
2022-12-31T10:32:31.577Z,97192.75
2022-12-31T10:35:12.862Z,97186.78
2022-12-31T10:37:58.276Z,97184.03
2022-12-31T10:40:49.823Z,97183.41
2022-12-31T10:43:31.335Z,97191.88
2022-12-31T10:46:39.104Z,97176.03
2022-12-31T10:49:24.303Z,97176.91
2022-12-31T10:52:23.205Z,97184.78
2022-12-31T10:55:08.093Z,97172.66
2022-12-31T10:58:13.553Z,97174.19
2022-12-31T11:00:51.015Z,97174.91
2022-12-31T11:03:29.488Z,97173.56
2022-12-31T11:05:59.319Z,97173.56
2022-12-31T11:09:00.159Z,97184.16
2022-12-31T11:11:43.493Z,97172.84
2022-12-31T11:14:48.652Z,97180.19
2022-12-31T11:17:28.736Z,97182.31
2022-12-31T11:20:10.761Z,97178.47
2022-12-31T11:22:48.626Z,97179.88
2022-12-31T11:25:30.223Z,97164.81
2022-12-31T11:28:03.406Z,97180.59
2022-12-31T11:30:40.303Z,97171.91
2022-12-31T11:33:56.227Z,97166.00
2022-12-31T11:36:45.217Z,97165.47
2022-12-31T11:39:38.968Z,97164.84
2022-12-31T11:42:57.872Z,97167.69
2022-12-31T11:45:37.920Z,97159.75
2022-12-31T11:51:20.891Z,97156.72
2022-12-31T11:54:08.335Z,97152.78
2022-12-31T11:56:38.977Z,97139.84
2022-12-31T11:59:18.593Z,97147.69
2022-12-31T12:01:56.284Z,97148.56
2022-12-31T12:04:23.163Z,97132.22
2022-12-31T12:06:50.247Z,97130.72
2022-12-31T12:09:26.565Z,97132.75
2022-12-31T12:12:05.774Z,97125.88
2022-12-31T12:14:34.074Z,97118.72
2022-12-31T12:17:05.235Z,97138.41
2022-12-31T12:19:34.621Z,97135.72
2022-12-31T12:22:11.286Z,97137.78
2022-12-31T12:24:38.233Z,97131.44
2022-12-31T12:27:05.144Z,97133.44
2022-12-31T12:29:35.705Z,97131.53
2022-12-31T12:32:25.414Z,97130.84
2022-12-31T12:34:52.428Z,97127.19
2022-12-31T12:37:25.353Z,97135.38
2022-12-31T12:40:00.920Z,97132.19
2022-12-31T12:42:28.588Z,97129.00
2022-12-31T12:45:15.322Z,97134.94
2022-12-31T12:47:46.507Z,97139.19
2022-12-31T12:50:25.783Z,97142.69
2022-12-31T12:53:11.158Z,97134.84
2022-12-31T12:55:46.813Z,97143.84
2022-12-31T12:58:51.108Z,97145.28
2022-12-31T13:01:50.181Z,97152.16
2022-12-31T13:04:34.602Z,97136.03
2022-12-31T13:07:07.755Z,97147.00
2022-12-31T13:09:34.525Z,97169.31
2022-12-31T13:12:13.823Z,97151.75
2022-12-31T13:14:40.565Z,97145.50
2022-12-31T13:17:31.592Z,97154.44
2022-12-31T13:20:13.366Z,97162.09
2022-12-31T13:23:15.087Z,97164.84
2022-12-31T13:26:00.735Z,97153.91
2022-12-31T13:28:28.475Z,97163.38
2022-12-31T13:31:06.523Z,97171.41
2022-12-31T13:33:38.693Z,97158.91
2022-12-31T13:36:10.897Z,97159.00
2022-12-31T13:38:40.562Z,97157.66
2022-12-31T13:41:34.450Z,97154.72
2022-12-31T13:44:34.967Z,97146.16
2022-12-31T13:47:13.550Z,97143.41
2022-12-31T13:49:47.881Z,97152.41
2022-12-31T13:52:33.584Z,97144.50
2022-12-31T13:55:18.409Z,97144.94
2022-12-31T13:58:01.449Z,97155.31
2022-12-31T14:00:40.372Z,97146.81
2022-12-31T14:03:25.327Z,97137.13
2022-12-31T14:05:56.796Z,97138.53
2022-12-31T14:08:23.655Z,97143.97
2022-12-31T14:11:01.403Z,97157.19
2022-12-31T14:13:37.191Z,97146.66
2022-12-31T14:16:03.962Z,97156.91
2022-12-31T14:18:47.602Z,97157.00
2022-12-31T14:21:27.880Z,97132.00
2022-12-31T14:24:10.056Z,97151.81
2022-12-31T14:26:44.225Z,97154.22
2022-12-31T14:29:11.117Z,97153.59
2022-12-31T14:31:50.087Z,97154.28
2022-12-31T14:34:42.033Z,97147.97
2022-12-31T14:37:13.953Z,97147.28
2022-12-31T14:39:46.871Z,97139.50
2022-12-31T14:42:31.047Z,97140.59
2022-12-31T14:45:17.314Z,97143.88
2022-12-31T14:47:58.153Z,97136.94
2022-12-31T14:50:29.332Z,97134.06
2022-12-31T14:53:25.777Z,97134.44
2022-12-31T14:56:02.575Z,97129.72
2022-12-31T14:58:35.347Z,97135.97
2022-12-31T15:01:15.325Z,97126.41
2022-12-31T15:03:45.888Z,97123.00
2022-12-31T15:06:31.814Z,97122.16
2022-12-31T15:09:08.738Z,97123.19
2022-12-31T15:11:57.471Z,97122.22
2022-12-31T15:14:37.379Z,97122.03
2022-12-31T15:17:20.227Z,97127.09
2022-12-31T15:20:16.642Z,97134.16
2022-12-31T15:22:45.952Z,97135.22
2022-12-31T15:25:40.060Z,97138.31
2022-12-31T15:28:34.313Z,97139.56
2022-12-31T15:31:22.542Z,97145.59
2022-12-31T15:34:07.584Z,97142.84
2022-12-31T15:36:39.020Z,97135.78
2022-12-31T15:39:11.426Z,97129.56
2022-12-31T15:42:10.215Z,97144.00
2022-12-31T15:44:51.469Z,97140.41
2022-12-31T15:47:29.467Z,97139.41
2022-12-31T15:49:57.718Z,97136.34
2022-12-31T15:52:52.710Z,97149.38
2022-12-31T15:55:22.482Z,97146.44
2022-12-31T15:57:49.569Z,97145.72
2022-12-31T16:00:20.411Z,97163.63
2022-12-31T16:02:56.157Z,97165.03
2022-12-31T16:05:25.702Z,97174.03
2022-12-31T16:07:59.555Z,97180.16
2022-12-31T16:10:31.351Z,97173.22
2022-12-31T16:12:58.939Z,97178.63
2022-12-31T16:15:28.280Z,97172.41
2022-12-31T16:18:02.810Z,97173.94
2022-12-31T16:20:31.361Z,97184.34
2022-12-31T16:23:00.140Z,97179.25
2022-12-31T16:25:31.128Z,97184.84
2022-12-31T16:27:58.870Z,97192.53
2022-12-31T16:30:30.647Z,97195.31
2022-12-31T16:33:04.190Z,97198.06
2022-12-31T16:35:37.390Z,97200.47
2022-12-31T16:38:15.058Z,97209.75
2022-12-31T16:41:01.742Z,97207.31
2022-12-31T16:43:28.449Z,97208.97
2022-12-31T16:45:58.047Z,97209.78
2022-12-31T16:48:25.200Z,97215.50
2022-12-31T16:50:53.926Z,97221.81
2022-12-31T16:53:24.913Z,97206.06
2022-12-31T16:56:03.423Z,97211.69
2022-12-31T16:58:33.025Z,97208.28
2022-12-31T17:01:17.180Z,97215.97
2022-12-31T17:03:47.643Z,97213.28
2022-12-31T17:06:16.376Z,97214.72
2022-12-31T17:09:00.938Z,97205.09
2022-12-31T17:11:30.561Z,97204.50
2022-12-31T17:14:18.948Z,97219.00
2022-12-31T17:17:02.661Z,97221.78
2022-12-31T17:19:40.874Z,97217.69
2022-12-31T17:22:13.644Z,97212.88
2022-12-31T17:24:40.754Z,97226.03
2022-12-31T17:27:09.167Z,97215.75
2022-12-31T17:29:36.028Z,97216.44
2022-12-31T17:32:06.649Z,97208.16
2022-12-31T17:34:36.902Z,97206.81
2022-12-31T17:37:18.395Z,97214.47
2022-12-31T17:39:45.446Z,97209.69
2022-12-31T17:42:13.735Z,97227.66
2022-12-31T17:44:42.811Z,97222.84
2022-12-31T17:47:13.898Z,97225.63
2022-12-31T17:49:44.305Z,97239.44
2022-12-31T17:52:15.192Z,97241.88
2022-12-31T17:54:42.617Z,97236.06
2022-12-31T17:57:24.736Z,97242.09
2022-12-31T17:59:51.768Z,97246.28
2022-12-31T18:02:18.707Z,97258.75
2022-12-31T18:04:46.068Z,97269.81
2022-12-31T18:07:12.817Z,97262.16
2022-12-31T18:09:39.495Z,97262.84
2022-12-31T18:12:06.924Z,97262.84
2022-12-31T18:14:33.756Z,97260.22
2022-12-31T18:17:00.821Z,97272.06
2022-12-31T18:20:03.088Z,97274.09
2022-12-31T18:22:16.121Z,97275.44
2022-12-31T18:24:43.475Z,97283.81
2022-12-31T18:27:17.665Z,97272.06
2022-12-31T18:29:50.331Z,97284.53
2022-12-31T18:32:38.879Z,97276.94
2022-12-31T18:35:33.291Z,97279.72
2022-12-31T18:38:18.772Z,97274.94
2022-12-31T18:40:58.848Z,97283.22
2022-12-31T18:43:26.030Z,97274.31
2022-12-31T18:45:53.180Z,97281.88
2022-12-31T18:48:19.992Z,97269.41
2022-12-31T18:50:47.822Z,97269.41
2022-12-31T18:53:19.863Z,97259.66
2022-12-31T18:55:53.216Z,97261.13
2022-12-31T18:58:20.555Z,97259.06
2022-12-31T19:00:48.437Z,97259.06
2022-12-31T19:03:18.274Z,97268.06
2022-12-31T19:05:49.045Z,97264.69
2022-12-31T19:08:25.577Z,97257.72
2022-12-31T19:10:53.515Z,97261.91
2022-12-31T19:13:20.261Z,97265.31
2022-12-31T19:15:51.969Z,97266.63
2022-12-31T19:18:19.223Z,97261.13
2022-12-31T19:20:46.017Z,97277.69
2022-12-31T19:23:21.551Z,97275.53
2022-12-31T19:25:49.566Z,97279.63
2022-12-31T19:28:18.559Z,97284.44
2022-12-31T19:30:46.333Z,97297.53
2022-12-31T19:33:13.525Z,97294.84
2022-12-31T19:35:41.570Z,97294.16
2022-12-31T19:38:26.874Z,97299.59
2022-12-31T19:40:54.049Z,97291.31
2022-12-31T19:43:22.509Z,97297.41
2022-12-31T19:45:50.251Z,97293.22
2022-12-31T19:48:20.711Z,97280.75
2022-12-31T19:50:48.242Z,97284.63
2022-12-31T19:53:18.837Z,97298.88
2022-12-31T19:55:45.619Z,97294.56
2022-12-31T19:58:19.476Z,97287.53
2022-12-31T20:00:54.516Z,97296.53
2022-12-31T20:03:24.447Z,97288.97
2022-12-31T20:05:51.304Z,97286.09
2022-12-31T20:08:20.326Z,97285.28
2022-12-31T20:10:57.753Z,97288.75
2022-12-31T20:13:34.385Z,97295.63
2022-12-31T20:16:01.117Z,97304.63
2022-12-31T20:18:36.750Z,97310.75
2022-12-31T20:21:05.371Z,97301.75
2022-12-31T20:23:35.181Z,97307.88
2022-12-31T20:26:02.229Z,97314.84
2022-12-31T20:28:29.813Z,97304.41
2022-12-31T20:30:56.637Z,97307.19
2022-12-31T20:33:23.929Z,97306.47
2022-12-31T20:35:51.199Z,97307.81
2022-12-31T20:38:17.846Z,97294.00
2022-12-31T20:40:46.912Z,97309.13
2022-12-31T20:43:14.306Z,97307.69
2022-12-31T20:45:41.571Z,97313.94
2022-12-31T20:48:08.405Z,97316.59
2022-12-31T20:50:35.277Z,97317.94
2022-12-31T20:53:02.437Z,97324.88
2022-12-31T20:55:30.767Z,97313.13
2022-12-31T20:57:57.610Z,97326.22
2022-12-31T21:00:24.279Z,97326.84
2022-12-31T21:02:57.911Z,97310.97
2022-12-31T21:05:31.121Z,97330.91
2022-12-31T21:07:57.874Z,97322.53
2022-12-31T21:10:24.745Z,97334.28
2022-12-31T21:12:54.674Z,97331.53
2022-12-31T21:15:21.796Z,97324.66
2022-12-31T21:17:51.632Z,97333.56
2022-12-31T21:20:19.984Z,97338.47
2022-12-31T21:22:51.966Z,97341.13
2022-12-31T21:25:20.963Z,97342.47
2022-12-31T21:27:47.680Z,97338.28
2022-12-31T21:30:19.352Z,97346.47
2022-12-31T21:32:46.716Z,97347.88
2022-12-31T21:38:07.352Z,97347.78
2022-12-31T21:40:34.480Z,97361.59
2022-12-31T21:43:01.111Z,97363.66
2022-12-31T21:45:28.011Z,97367.03
2022-12-31T21:48:13.091Z,97377.94
2022-12-31T21:50:39.912Z,97376.63
2022-12-31T21:53:06.633Z,97379.25
2022-12-31T21:55:52.263Z,97375.78
2022-12-31T21:58:27.691Z,97378.53
2022-12-31T22:01:15.117Z,97381.91
2022-12-31T22:03:42.111Z,97388.16
2022-12-31T22:06:22.378Z,97379.66
2022-12-31T22:08:52.231Z,97393.47
2022-12-31T22:11:20.969Z,97383.13
2022-12-31T22:13:48.964Z,97384.47
2022-12-31T22:16:17.199Z,97392.03
2022-12-31T22:18:44.475Z,97389.91
2022-12-31T22:21:18.726Z,97402.97
2022-12-31T22:23:50.467Z,97384.38
2022-12-31T22:26:18.383Z,97394.09
2022-12-31T22:28:46.182Z,97392.53
2022-12-31T22:31:14.569Z,97391.09
2022-12-31T22:33:42.013Z,97396.63
2022-12-31T22:36:12.682Z,97393.78
2022-12-31T22:38:39.716Z,97393.03
2022-12-31T22:41:09.536Z,97395.09
2022-12-31T22:43:40.474Z,97398.56
2022-12-31T22:46:12.553Z,97408.16
2022-12-31T22:48:40.154Z,97401.94
2022-12-31T22:51:07.112Z,97400.50
2022-12-31T22:53:33.862Z,97392.84
2022-12-31T22:56:00.821Z,97390.69
2022-12-31T22:58:27.808Z,97388.66
2022-12-31T23:00:54.469Z,97396.19
2022-12-31T23:03:21.257Z,97383.03
2022-12-31T23:05:52.521Z,97389.16
2022-12-31T23:08:23.303Z,97381.50
2022-12-31T23:10:59.732Z,97369.72
2022-12-31T23:13:50.588Z,97353.91
2022-12-31T23:16:37.500Z,97372.47
2022-12-31T23:19:23.878Z,97374.44
2022-12-31T23:22:09.162Z,97372.28
2022-12-31T23:24:36.020Z,97373.00
2022-12-31T23:27:03.001Z,97372.16
2022-12-31T23:29:29.743Z,97365.34
2022-12-31T23:31:56.800Z,97359.84
2022-12-31T23:34:23.579Z,97366.66
2022-12-31T23:36:50.296Z,97361.13
2022-12-31T23:39:17.071Z,97359.00
2022-12-31T23:41:43.736Z,97355.53
2022-12-31T23:44:12.106Z,97354.19
2022-12-31T23:46:39.429Z,97341.03
2022-12-31T23:49:06.459Z,97358.91
2022-12-31T23:51:33.278Z,97359.63
2022-12-31T23:54:00.998Z,97363.72
2022-12-31T23:56:27.636Z,97366.47
2022-12-31T23:58:55.535Z,97363.59
